Time;durP1;ratioP1;P1;durP2;ratioP2;P2;SDS_P1;SDS_P2;PMS_P1;PMS_P2;Temp;Humidity;BMP_temperature;BMP_pressure;BME280_temperature;BME280_humidity;BME280_pressure;Samples;Min_cycle;Max_cycle;Signal;HPM_P1;HPM_P2
2022/11/23 00:03:16;;;;;;;95.80;41.42;;;;;;;1.78;100.00;99755.56;5132751;56;1140982;-68
2022/11/23 00:08:21;;;;;;;106.97;41.57;;;;;;;1.84;100.00;99766.09;5133012;56;1138776;-71
2022/11/23 00:13:27;;;;;;;103.83;42.00;;;;;;;1.82;100.00;99771.88;5132774;56;1140826;-69
2022/11/23 00:18:32;;;;;;;95.17;40.57;;;;;;;1.82;100.00;99767.97;5137923;56;1140996;-64
2022/11/23 00:23:38;;;;;;;98.83;40.97;;;;;;;1.84;100.00;99766.09;5153266;56;1138703;-67
2022/11/23 00:28:46;;;;;;;97.80;41.27;;;;;;;1.88;100.00;99772.84;5153010;56;1138652;-66
2022/11/23 00:33:54;;;;;;;104.63;43.25;;;;;;;1.89;100.00;99770.16;5153205;56;1138760;-66
2022/11/23 00:39:00;;;;;;;95.83;41.60;;;;;;;1.90;100.00;99765.78;5040695;56;1140924;-69
2022/11/23 00:44:06;;;;;;;108.07;39.83;;;;;;;1.91;100.00;99759.64;5069214;56;1139096;-68
2022/11/23 00:49:12;;;;;;;95.75;40.23;;;;;;;1.89;100.00;99753.20;5068949;55;1140827;-65
2022/11/23 00:54:18;;;;;;;94.67;40.37;;;;;;;1.87;100.00;99748.53;5069257;56;1138679;-67
2022/11/23 00:59:24;;;;;;;98.93;41.03;;;;;;;1.89;100.00;99757.11;5068926;56;1138698;-64
2022/11/23 01:04:31;;;;;;;94.37;40.73;;;;;;;1.91;100.00;99753.97;5095094;56;1138713;-65
2022/11/23 01:09:37;;;;;;;101.20;41.53;;;;;;;1.90;100.00;99756.66;5140295;56;1138700;-66
2022/11/23 01:14:44;;;;;;;86.27;37.37;;;;;;;1.89;100.00;99764.94;5137717;56;1262472;-66
2022/11/23 01:19:50;;;;;;;95.63;39.47;;;;;;;1.89;100.00;99758.42;5097249;56;1138842;-69
2022/11/23 01:24:55;;;;;;;90.27;38.73;;;;;;;1.92;100.00;99763.94;5055350;57;1138804;-66
2022/11/23 01:30:01;;;;;;;93.27;40.83;;;;;;;1.92;100.00;99765.23;5055442;57;1138877;-69
2022/11/23 01:35:08;;;;;;;80.70;36.93;;;;;;;1.94;100.00;99769.45;5055717;56;1139111;-67
2022/11/23 01:40:14;;;;;;;91.72;38.48;;;;;;;1.96;100.00;99761.55;5056137;55;1138940;-67
2022/11/23 01:45:42;;;;;;;97.27;41.13;;;;;;;1.95;100.00;99765.08;5056163;55;1138979;-67
2022/11/23 01:50:51;;;;;;;95.03;38.70;;;;;;;1.93;100.00;99759.95;5056068;56;1139325;-70
2022/11/23 01:56:01;;;;;;;92.17;37.73;;;;;;;1.95;100.00;99764.62;5056224;55;1138993;-66
2022/11/23 02:01:08;;;;;;;99.40;41.20;;;;;;;1.95;100.00;99761.16;5098778;56;1148380;-66
2022/11/23 02:06:19;;;;;;;98.85;38.60;;;;;;;1.92;100.00;99763.47;5151246;56;1138838;-67
2022/11/23 02:11:26;;;;;;;85.63;37.57;;;;;;;1.92;100.00;99766.08;5153413;56;1138871;-70
2022/11/23 02:16:32;;;;;;;79.87;35.70;;;;;;;1.93;100.00;99759.95;5153481;56;1139020;-70
2022/11/23 02:21:39;;;;;;;93.23;39.23;;;;;;;1.94;100.00;99765.54;5079567;56;1139060;-70
2022/11/23 02:26:47;;;;;;;88.63;38.60;;;;;;;1.94;100.00;99760.78;5067507;57;1138902;-68
2022/11/23 02:31:54;;;;;;;89.47;38.23;;;;;;;1.93;100.00;99756.03;5068440;57;1138969;-68
2022/11/23 02:37:02;;;;;;;88.90;39.07;;;;;;;1.95;100.00;99758.56;5097456;55;1138990;-65
2022/11/23 02:42:08;;;;;;;93.80;38.07;;;;;;;1.95;100.00;99762.47;5133468;56;1139000;-65
2022/11/23 02:47:14;;;;;;;85.35;35.70;;;;;;;1.93;100.00;99758.64;5133132;56;1139005;-69
2022/11/23 02:52:20;;;;;;;84.47;36.23;;;;;;;1.90;100.00;99752.28;5131485;56;1251072;-67
2022/11/23 02:57:27;;;;;;;84.13;37.07;;;;;;;1.91;100.00;99759.18;5141501;56;1250625;-64
2022/11/23 03:02:33;;;;;;;80.67;36.03;;;;;;;1.92;100.00;99761.33;5153484;56;1138986;-66
2022/11/23 03:07:39;;;;;;;86.30;36.93;;;;;;;1.92;100.00;99760.02;5154832;56;1138773;-64
2022/11/23 03:12:45;;;;;;;90.10;36.68;;;;;;;1.93;100.00;99769.06;5155332;56;1138821;-66
2022/11/23 03:17:53;;;;;;;78.67;34.37;;;;;;;1.95;100.00;99776.35;5145567;56;1138832;-66
2022/11/23 03:22:59;;;;;;;80.70;37.27;;;;;;;1.96;100.00;99775.43;5070157;57;1138960;-68
2022/11/23 03:28:06;;;;;;;89.37;37.97;;;;;;;1.93;100.00;99766.92;5069845;57;1138786;-68
2022/11/23 03:33:12;;;;;;;79.95;36.13;;;;;;;1.88;100.00;99764.55;5070679;57;1138833;-64
2022/11/23 03:38:18;;;;;;;83.33;36.63;;;;;;;1.90;100.00;99756.66;5123809;56;1138989;-69
2022/11/23 03:43:24;;;;;;;83.22;36.70;;;;;;;1.92;100.00;99768.69;5146610;55;1138772;-70
2022/11/23 03:48:31;;;;;;;98.07;41.87;;;;;;;1.91;100.00;99755.27;5146546;56;1138824;-67
2022/11/23 03:53:36;;;;;;;92.53;39.18;;;;;;;1.90;100.00;99770.53;5150755;56;1138772;-65
2022/11/23 03:58:42;;;;;;;82.33;36.07;;;;;;;1.91;100.00;99770.07;5155677;56;1138708;-68
2022/11/23 04:03:50;;;;;;;85.45;38.80;;;;;;;1.90;100.00;99765.31;5155408;56;1138669;-69
2022/11/23 04:08:57;;;;;;;85.80;37.90;;;;;;;1.93;100.00;99772.14;5151888;56;1138917;-64
2022/11/23 04:14:11;;;;;;;88.23;38.57;;;;;;;1.93;100.00;99779.96;5087350;56;1141916;-66
2022/11/23 04:19:16;;;;;;;81.78;37.85;;;;;;;1.93;100.00;99793.84;5119524;56;1138845;-70
2022/11/23 04:24:22;;;;;;;94.47;41.40;;;;;;;1.97;100.00;99788.01;5076472;55;1139183;-68
2022/11/23 04:29:31;;;;;;;95.83;42.67;;;;;;;1.97;100.00;99777.58;5178067;55;1138750;-67
2022/11/23 04:34:38;;;;;;;101.37;43.37;;;;;;;1.93;100.00;99778.66;5140768;55;1138846;-66
2022/11/23 04:39:45;;;;;;;92.42;40.90;;;;;;;1.89;100.00;99781.05;5092874;56;1140923;-64
2022/11/23 04:45:05;;;;;;;91.67;37.93;;;;;;;1.90;100.00;99786.17;5064901;57;1138670;-67
2022/11/23 04:50:11;;;;;;;92.57;39.13;;;;;;;1.88;100.00;99786.72;5112351;56;1139039;-70
2022/11/23 04:55:17;;;;;;;99.17;45.03;;;;;;;1.85;100.00;99781.66;5086343;56;1138674;-67
2022/11/23 05:00:25;;;;;;;108.33;46.27;;;;;;;1.89;100.00;99791.47;5078342;56;1138690;-68
2022/11/23 05:05:33;;;;;;;99.10;44.27;;;;;;;1.91;100.00;99804.81;5155302;56;1141113;-66
2022/11/23 05:10:42;;;;;;;101.55;44.38;;;;;;;1.92;100.00;99806.95;5157464;55;1139067;-69
2022/11/23 05:15:48;;;;;;;90.22;39.08;;;;;;;1.89;100.00;99814.94;5150625;56;1140890;-64
2022/11/23 05:20:55;;;;;;;96.03;42.67;;;;;;;1.86;100.00;99813.79;5147373;55;1138830;-64
2022/11/23 05:26:01;;;;;;;93.80;40.90;;;;;;;1.84;100.00;99810.42;5149932;56;1138845;-66
2022/11/23 05:31:10;;;;;;;91.08;40.63;;;;;;;1.82;100.00;99816.20;5163733;56;1138910;-69
2022/11/23 05:36:16;;;;;;;96.97;40.07;;;;;;;1.80;100.00;99811.53;5124465;56;1138887;-69
2022/11/23 05:41:21;;;;;;;96.75;41.40;;;;;;;1.76;100.00;99818.20;5060776;57;1139005;-67
2022/11/23 05:46:29;;;;;;;97.97;42.23;;;;;;;1.73;100.00;99820.12;5110333;56;1138871;-66
2022/11/23 05:51:34;;;;;;;96.87;42.77;;;;;;;1.70;100.00;99817.66;5121718;55;1138926;-64
2022/11/23 05:56:40;;;;;;;88.43;37.27;;;;;;;1.64;100.00;99820.16;5102424;56;1139067;-67
2022/11/23 06:01:51;;;;;;;91.03;37.33;;;;;;;1.64;100.00;99823.22;5061517;56;1139012;-65
2022/11/23 06:06:59;;;;;;;90.70;39.10;;;;;;;1.63;100.00;99811.95;5071106;55;1138913;-69
2022/11/23 06:12:07;;;;;;;106.10;46.40;;;;;;;1.65;100.00;99818.39;5093263;56;1138885;-67
2022/11/23 06:17:13;;;;;;;94.70;42.97;;;;;;;1.64;100.00;99824.52;5129827;55;1141069;-66
2022/11/23 06:22:24;;;;;;;97.17;41.40;;;;;;;1.66;100.00;99822.68;5081132;55;1138840;-68
2022/11/23 06:27:34;;;;;;;96.00;40.67;;;;;;;1.66;100.00;99824.83;5101371;55;1138904;-64
2022/11/23 06:32:41;;;;;;;87.57;39.03;;;;;;;1.62;100.00;99829.81;5066414;57;1138903;-66
2022/11/23 06:37:50;;;;;;;96.37;39.40;;;;;;;1.64;100.00;99830.58;5067599;56;1138832;-71
2022/11/23 06:43:00;;;;;;;97.23;42.93;;;;;;;1.66;100.00;99839.16;5140362;55;1138885;-68
2022/11/23 06:48:11;;;;;;;94.90;40.38;;;;;;;1.67;100.00;99847.36;5164866;56;1138776;-70
2022/11/23 06:53:18;;;;;;;95.00;39.97;;;;;;;1.65;100.00;99850.51;5149106;56;1138890;-64
2022/11/23 06:58:26;;;;;;;93.70;38.05;;;;;;;1.64;100.00;99851.89;5152773;56;1138767;-67
2022/11/23 07:03:32;;;;;;;107.57;45.10;;;;;;;1.64;100.00;99860.55;5152626;56;1138813;-65
2022/11/23 07:08:42;;;;;;;100.23;42.57;;;;;;;1.64;100.00;99862.31;5143937;55;1140960;-65
2022/11/23 07:13:48;;;;;;;86.97;38.13;;;;;;;1.68;100.00;99858.64;5145063;55;1140881;-69
2022/11/23 07:18:54;;;;;;;96.30;37.43;;;;;;;1.69;100.00;99867.66;5138837;56;1138809;-68
2022/11/23 07:24:00;;;;;;;97.60;41.80;;;;;;;1.78;100.00;99871.56;5138781;56;1139095;-68
2022/11/23 07:29:07;;;;;;;106.83;46.10;;;;;;;1.78;100.00;99867.66;5138748;56;1138762;-66
2022/11/23 07:34:13;;;;;;;103.67;39.27;;;;;;;1.75;100.00;99874.33;5118740;56;1141092;-66
2022/11/23 07:39:19;;;;;;;101.65;45.20;;;;;;;1.78;100.00;99881.99;5116945;56;1140992;-67
2022/11/23 07:44:26;;;;;;;92.70;40.67;;;;;;;1.82;100.00;99877.47;5138358;56;1140911;-67
2022/11/23 07:49:31;;;;;;;89.63;37.43;;;;;;;1.80;100.00;99885.83;5122212;56;1138862;-69
2022/11/23 07:54:37;;;;;;;92.53;41.67;;;;;;;1.79;100.00;99884.14;5104800;55;1138754;-70
2022/11/23 07:59:43;;;;;;;89.80;39.47;;;;;;;1.82;100.00;99893.11;5137592;55;1138713;-71
2022/11/23 08:04:49;;;;;;;98.47;42.97;;;;;;;1.86;100.00;99893.31;5094134;56;1138911;-67
2022/11/23 08:09:55;;;;;;;99.33;43.07;;;;;;;1.88;100.00;99899.30;5076238;56;1138927;-70
2022/11/23 08:15:01;;;;;;;90.57;40.23;;;;;;;1.86;100.00;99899.83;5137025;55;1138735;-68
2022/11/23 08:20:07;;;;;;;113.53;48.90;;;;;;;1.89;100.00;99901.83;5138721;55;1138960;-69
2022/11/23 08:25:13;;;;;;;103.73;44.83;;;;;;;1.94;100.00;99899.83;5116606;56;1243529;-67
2022/11/23 08:30:19;;;;;;;115.80;50.80;;;;;;;1.92;100.00;99903.44;5138545;56;1141144;-69
2022/11/23 08:35:24;;;;;;;103.22;41.88;;;;;;;1.91;100.00;99906.97;5135494;56;1140827;-66
2022/11/23 08:40:30;;;;;;;136.70;59.47;;;;;;;1.91;100.00;99907.80;5138804;55;1140938;-68
2022/11/23 08:45:37;;;;;;;118.83;49.90;;;;;;;1.94;100.00;99899.83;5138319;56;1141001;-63
2022/11/23 08:50:43;;;;;;;98.50;43.90;;;;;;;2.00;100.00;99915.59;5138467;56;1140806;-66
2022/11/23 08:55:49;;;;;;;86.47;39.57;;;;;;;1.99;100.00;99908.23;5138590;55;1138918;-64
2022/11/23 09:00:55;;;;;;;138.92;61.48;;;;;;;2.01;100.00;99906.39;5138417;56;1138742;-68
2022/11/23 09:06:01;;;;;;;95.40;43.53;;;;;;;2.04;100.00;99904.09;5138024;55;1140801;-66
2022/11/23 09:11:11;;;;;;;92.40;41.57;;;;;;;2.06;100.00;99916.13;5139180;56;1138762;-63
2022/11/23 09:16:17;;;;;;;101.03;42.27;;;;;;;2.05;100.00;99913.14;5114808;55;1138929;-65
2022/11/23 09:21:28;;;;;;;93.52;43.13;;;;;;;2.09;100.00;99909.92;5156885;56;1140892;-68
2022/11/23 09:26:32;;;;;;;105.30;48.74;;;;;;;2.10;100.00;99912.45;5139186;55;1139013;-64
2022/11/23 09:31:37;;;;;;;85.10;40.33;;;;;;;2.12;100.00;99912.38;5136510;56;1140968;-63
2022/11/23 09:36:44;;;;;;;110.43;48.63;;;;;;;2.16;100.00;99909.13;5005229;56;1139056;-67
2022/11/23 09:42:15;;;;;;;120.20;51.97;;;;;;;2.19;100.00;99906.36;5138921;55;1141314;-70
2022/11/23 09:47:43;;;;;;;104.67;45.97;;;;;;;2.17;100.00;99899.07;5139241;56;1141108;-67
2022/11/23 09:52:52;;;;;;;91.70;41.03;;;;;;;2.20;100.00;99903.67;5092361;56;1141005;-68
2022/11/23 09:58:02;;;;;;;86.87;41.10;;;;;;;2.25;100.00;99904.28;5139343;56;1139197;-68
2022/11/23 10:03:17;;;;;;;96.37;41.47;;;;;;;2.29;100.00;99898.44;5139168;56;1138845;-69
2022/11/23 10:08:46;;;;;;;94.37;41.27;;;;;;;2.23;100.00;99898.75;5130536;55;1138767;-66
2022/11/23 10:14:04;;;;;;;91.43;40.67;;;;;;;2.23;100.00;99893.08;5095968;56;1138914;-66
2022/11/23 10:19:15;;;;;;;101.67;42.97;;;;;;;2.25;100.00;99892.54;5086562;56;1138849;-64
2022/11/23 10:24:27;;;;;;;106.07;43.77;;;;;;;2.26;100.00;99888.16;5102660;55;1140894;-69
2022/11/23 10:29:38;;;;;;;96.92;45.50;;;;;;;2.28;100.00;99888.92;5133968;56;1140863;-68
2022/11/23 10:35:04;;;;;;;172.97;84.43;;;;;;;2.36;100.00;99876.30;5138507;56;1138882;-69
2022/11/23 10:40:26;;;;;;;102.70;48.43;;;;;;;2.44;100.00;99873.63;5087772;55;1140779;-65
2022/11/23 10:45:31;;;;;;;98.80;44.30;;;;;;;2.47;100.00;99878.70;5050887;56;1140949;-68
2022/11/23 10:50:43;;;;;;;90.70;42.48;;;;;;;2.50;100.00;99880.30;5049307;57;1138699;-67
2022/11/23 10:56:02;;;;;;;93.07;44.47;;;;;;;2.52;100.00;99880.22;5049496;57;1138703;-66
2022/11/23 11:01:08;;;;;;;111.50;49.20;;;;;;;2.50;100.00;99870.32;5050825;55;1138886;-68
2022/11/23 11:06:27;;;;;;;110.23;47.67;;;;;;;2.48;100.00;99871.70;5117869;56;1140883;-70
2022/11/23 11:11:38;;;;;;;111.40;47.23;;;;;;;2.44;100.00;99870.22;5053100;56;1140849;-68
2022/11/23 11:16:53;;;;;;;108.37;45.17;;;;;;;2.44;100.00;99863.69;5138366;56;1140856;-69
2022/11/23 11:22:04;;;;;;;124.27;53.23;;;;;;;2.46;100.00;99858.73;5137392;56;1144724;-69
2022/11/23 11:27:24;;;;;;;125.47;55.33;;;;;;;2.45;100.00;99857.52;5047915;57;1141026;-66
2022/11/23 11:33:03;;;;;;;121.07;53.60;;;;;;;2.46;100.00;99851.38;5133724;56;1140908;-66
2022/11/23 11:38:23;;;;;;;102.00;42.83;;;;;;;2.48;100.00;99846.45;5136168;56;1140889;-65
2022/11/23 11:43:33;;;;;;;112.95;46.10;;;;;;;2.53;100.00;99849.28;5138328;56;1140952;-70
2022/11/23 11:48:46;;;;;;;114.43;44.93;;;;;;;2.52;100.00;99844.98;5024694;56;1140942;-67
2022/11/23 11:53:59;;;;;;;106.72;47.95;;;;;;;2.53;100.00;99847.97;5138332;56;1140820;-66
2022/11/23 11:59:29;;;;;;;204.50;85.40;;;;;;;2.55;100.00;99840.44;5138146;56;1141041;-69
2022/11/23 12:05:00;;;;;;;114.50;47.13;;;;;;;2.59;100.00;99844.58;5138283;56;1141073;-65
2022/11/23 12:10:18;;;;;;;124.87;53.73;;;;;;;2.69;100.00;99838.37;5081226;56;1143106;-68
2022/11/23 12:15:40;;;;;;;120.47;49.83;;;;;;;2.68;100.00;99845.81;5069990;56;1140846;-64
2022/11/23 12:21:16;;;;;;;117.70;50.67;;;;;;;2.62;100.00;99839.63;5108093;55;1141011;-66
2022/11/23 12:26:38;;;;;;;106.20;49.53;;;;;;;2.56;100.00;99851.27;5078851;56;1140840;-65
2022/11/23 12:31:57;;;;;;;116.03;52.20;;;;;;;2.58;100.00;99845.50;5027525;56;1141051;-67
2022/11/23 12:37:43;;;;;;;102.17;49.20;;;;;;;2.50;100.00;99843.77;5145376;55;1140907;-64
2022/11/23 12:42:53;;;;;;;110.03;48.97;;;;;;;2.46;100.00;99844.84;5136946;56;1140926;-67
2022/11/23 12:48:27;;;;;;;127.17;55.67;;;;;;;2.45;100.00;99850.98;5137237;56;1143107;-67
2022/11/23 12:53:50;;;;;;;;;;;;;;;2.47;100.00;99846.53;5135137;56;1141206;-68
2022/11/23 12:58:58;;;;;;;116.93;51.50;;;;;;;2.45;100.00;99841.86;5152117;55;971893;-69
2022/11/23 13:04:50;;;;;;;120.40;50.10;;;;;;;2.45;100.00;99850.98;5111455;55;1139032;-64
2022/11/23 13:10:22;;;;;;;117.20;53.03;;;;;;;2.48;100.00;99858.66;5059601;56;1140862;-66
2022/11/23 13:15:53;;;;;;;120.08;51.55;;;;;;;2.47;100.00;99864.34;5082755;55;1141097;-68
2022/11/23 13:21:21;;;;;;;108.60;50.23;;;;;;;2.44;100.00;99861.89;5117891;56;1141034;-71
2022/11/23 13:26:32;;;;;;;100.75;44.67;;;;;;;2.39;100.00;99867.84;5139394;56;1140882;-68
2022/11/23 13:31:38;;;;;;;107.37;49.10;;;;;;;2.42;100.00;99867.69;5139420;56;1140757;-66
2022/11/23 13:36:45;;;;;;;106.80;47.50;;;;;;;2.43;100.00;99873.28;5110959;55;1140867;-67
2022/11/23 13:42:02;;;;;;;101.40;44.77;;;;;;;2.44;100.00;99872.83;5110701;56;1140855;-66
2022/11/23 13:47:19;;;;;;;106.53;49.90;;;;;;;2.46;100.00;99880.08;5139304;56;1141210;-64
2022/11/23 13:52:30;;;;;;;98.27;43.75;;;;;;;2.51;100.00;99869.40;5139398;56;1141031;-68
2022/11/23 13:57:37;;;;;;;107.40;49.30;;;;;;;2.58;100.00;99877.28;5063675;56;1141213;-65
2022/11/23 14:02:43;;;;;;;99.47;46.63;;;;;;;2.58;100.00;99877.28;5055066;56;1141058;-68
2022/11/23 14:07:51;;;;;;;97.77;44.13;;;;;;;2.55;100.00;99878.29;5049585;56;1139362;-68
2022/11/23 14:13:04;;;;;;;108.00;47.47;;;;;;;2.60;100.00;99881.97;5105705;56;1139034;-67
2022/11/23 14:18:32;;;;;;;107.60;48.60;;;;;;;2.58;100.00;99869.45;5137399;56;1140994;-69
2022/11/23 14:24:16;;;;;;;107.57;48.33;;;;;;;2.53;100.00;99880.60;5139616;56;1141105;-67
2022/11/23 14:29:47;;;;;;;121.23;51.87;;;;;;;2.52;100.00;99881.06;5139895;56;1141081;-69
2022/11/23 14:35:17;;;;;;;115.30;53.40;;;;;;;2.54;100.00;99880.52;5136364;56;1141050;-64
2022/11/23 14:40:39;;;;;;;125.47;56.27;;;;;;;2.60;100.00;99885.88;5055663;56;1147202;-67
2022/11/23 14:45:46;;;;;;;374.77;233.37;;;;;;;2.58;100.00;99896.40;5054450;56;1140948;-67
2022/11/23 14:51:01;;;;;;;112.70;49.50;;;;;;;2.54;100.00;99902.70;5054784;55;1142887;-67
2022/11/23 14:56:08;;;;;;;101.13;44.97;;;;;;;2.50;100.00;99916.00;5052202;54;1141116;-67
2022/11/23 15:01:21;;;;;;;112.33;48.60;;;;;;;2.47;100.00;99917.00;5047710;56;1140988;-68
2022/11/23 15:06:30;;;;;;;118.43;47.93;;;;;;;2.47;100.00;99917.00;5059608;56;1141003;-67
2022/11/23 15:11:38;;;;;;;111.40;44.40;;;;;;;2.44;100.00;99919.30;5133321;56;1140804;-68
2022/11/23 15:16:44;;;;;;;129.37;58.90;;;;;;;2.47;100.00;99920.91;5048668;57;1140887;-68
2022/11/23 15:21:49;;;;;;;125.42;50.48;;;;;;;2.54;100.00;99924.89;5050439;57;1142923;-69
2022/11/23 15:27:00;;;;;;;128.20;50.77;;;;;;;2.54;100.00;99928.81;5128336;56;1141040;-67
2022/11/23 15:32:24;;;;;;;150.83;70.67;;;;;;;2.54;100.00;99934.49;5127738;56;1140814;-66
2022/11/23 15:37:31;;;;;;;123.97;47.75;;;;;;;2.51;100.00;99940.71;5092634;56;1140823;-66
2022/11/23 15:42:38;;;;;;;119.27;48.03;;;;;;;2.53;100.00;99933.65;5053431;57;1140809;-66
2022/11/23 15:47:45;;;;;;;132.27;51.57;;;;;;;2.55;100.00;99930.50;5108671;55;1143019;-67
2022/11/23 15:52:52;;;;;;;128.65;48.40;;;;;;;2.55;100.00;99931.80;5131624;56;1140821;-67
2022/11/23 15:57:59;;;;;;;118.97;45.37;;;;;;;2.53;100.00;99925.81;5131544;56;1141051;-65
2022/11/23 16:03:41;;;;;;;118.90;45.93;;;;;;;2.52;100.00;99935.03;5132052;56;1140861;-64
2022/11/23 16:08:47;;;;;;;116.00;47.60;;;;;;;2.48;100.00;99931.27;5091609;56;1141050;-64
2022/11/23 16:13:53;;;;;;;107.87;42.38;;;;;;;2.52;100.00;99934.57;5054586;56;1141084;-69
2022/11/23 16:18:59;;;;;;;142.40;67.37;;;;;;;2.51;100.00;99922.44;5060436;56;1140959;-65
2022/11/23 16:24:06;;;;;;;116.57;45.90;;;;;;;2.50;100.00;99925.98;5139230;56;1141017;-65
2022/11/23 16:29:27;;;;;;;118.63;45.87;;;;;;;2.52;100.00;99931.95;5142633;56;1140959;-67
2022/11/23 16:34:33;;;;;;;121.07;52.17;;;;;;;2.46;100.00;99929.20;5153162;56;1140926;-69
2022/11/23 16:39:38;;;;;;;113.40;43.35;;;;;;;2.44;100.00;99932.36;5051085;56;1140841;-68
2022/11/23 16:44:44;;;;;;;104.17;43.10;;;;;;;2.39;100.00;99933.55;5047780;56;1140881;-69
2022/11/23 16:49:50;;;;;;;111.83;47.93;;;;;;;2.38;100.00;99934.01;5047605;56;1141027;-65
2022/11/23 16:54:57;;;;;;;113.70;47.73;;;;;;;2.43;100.00;99942.45;5047816;56;1140923;-69
2022/11/23 17:00:07;;;;;;;105.97;46.33;;;;;;;2.51;100.00;99945.94;5053797;56;1140863;-67
2022/11/23 17:05:24;;;;;;;108.97;41.40;;;;;;;2.52;100.00;99949.39;5067808;56;1140917;-67
2022/11/23 17:10:30;;;;;;;107.12;46.05;;;;;;;2.50;100.00;99946.86;4994099;56;1141047;-69
2022/11/23 17:15:36;;;;;;;109.92;47.85;;;;;;;2.53;100.00;99949.77;4993767;56;1141000;-66
2022/11/23 17:20:42;;;;;;;117.30;49.03;;;;;;;2.53;100.00;99949.30;5045660;56;1140866;-69
2022/11/23 17:25:48;;;;;;;105.23;47.00;;;;;;;2.53;100.00;99941.94;5067576;56;1140949;-65
2022/11/23 17:30:55;;;;;;;104.63;46.27;;;;;;;2.54;100.00;99943.62;5064302;56;1140924;-66
2022/11/23 17:36:00;;;;;;;92.90;43.13;;;;;;;2.54;100.00;99941.86;5101011;56;1140897;-70
2022/11/23 17:41:06;;;;;;;100.40;45.33;;;;;;;2.56;100.00;99940.47;5081150;56;1138895;-66
2022/11/23 17:46:22;;;;;;;117.27;53.60;;;;;;;2.55;100.00;99940.09;5071538;55;1141141;-70
2022/11/23 17:51:28;;;;;;;153.00;79.92;;;;;;;2.50;100.00;99939.03;5134569;56;1143260;-64
2022/11/23 17:56:34;;;;;;;140.40;63.47;;;;;;;2.48;100.00;99939.10;5140920;56;1140892;-67
2022/11/23 18:01:40;;;;;;;164.50;80.85;;;;;;;2.48;100.00;99945.63;5153116;56;1140880;-67
2022/11/23 18:06:46;;;;;;;129.40;56.03;;;;;;;2.48;100.00;99935.19;5129759;56;1140789;-66
2022/11/23 18:11:52;;;;;;;116.40;52.50;;;;;;;2.43;100.00;99943.75;5153412;56;1141065;-67
2022/11/23 18:16:57;;;;;;;91.07;42.73;;;;;;;2.45;100.00;99943.17;5153654;56;1141013;-66
2022/11/23 18:22:03;;;;;;;107.30;47.53;;;;;;;2.44;100.00;99936.77;5153597;56;1138736;-65
2022/11/23 18:27:09;;;;;;;107.83;45.00;;;;;;;2.42;100.00;99936.84;5153380;56;1140812;-65
2022/11/23 18:32:15;;;;;;;168.30;80.83;;;;;;;2.41;100.00;99933.84;5152238;56;1140776;-66
2022/11/23 18:37:21;;;;;;;180.47;102.73;;;;;;;2.45;100.00;99939.27;5136924;55;1140823;-68
2022/11/23 18:42:27;;;;;;;118.57;49.05;;;;;;;2.44;100.00;99940.68;5139883;56;1151911;-68
2022/11/23 18:47:32;;;;;;;122.60;51.33;;;;;;;2.48;100.00;99944.78;5140069;56;1140722;-69
2022/11/23 18:52:38;;;;;;;101.78;45.28;;;;;;;2.45;100.00;99946.25;5138605;56;1140793;-68
2022/11/23 18:57:44;;;;;;;96.63;43.03;;;;;;;2.40;100.00;99945.67;5029889;56;1140914;-68
2022/11/23 19:02:55;;;;;;;94.53;42.13;;;;;;;2.38;100.00;99940.99;5123588;56;1138618;-69
2022/11/23 19:08:06;;;;;;;105.63;48.53;;;;;;;2.39;100.00;99946.13;5055280;56;1138873;-66
2022/11/23 19:13:11;;;;;;;126.63;57.77;;;;;;;2.40;100.00;99941.75;5094414;55;1140762;-65
2022/11/23 19:18:17;;;;;;;106.07;46.37;;;;;;;2.43;100.00;99956.80;5123140;56;1140991;-72
2022/11/23 19:23:22;;;;;;;103.80;46.23;;;;;;;2.41;100.00;99960.41;5053644;56;1140844;-65
2022/11/23 19:28:28;;;;;;;84.00;42.17;;;;;;;2.43;100.00;99964.63;5050743;57;1147836;-67
2022/11/23 19:33:34;;;;;;;89.17;43.83;;;;;;;2.48;100.00;99965.20;5078065;55;1139116;-66
2022/11/23 19:38:40;;;;;;;95.23;44.73;;;;;;;2.48;100.00;99961.29;5131255;55;1139071;-67
2022/11/23 19:43:46;;;;;;;86.20;42.30;;;;;;;2.45;100.00;99960.60;5083116;55;1138793;-70
2022/11/23 19:48:53;;;;;;;90.40;40.73;;;;;;;2.44;100.00;99968.08;5130647;55;1138853;-68
2022/11/23 19:54:00;;;;;;;103.17;45.63;;;;;;;2.46;100.00;99967.05;5068311;57;1138949;-65
2022/11/23 19:59:06;;;;;;;99.93;45.07;;;;;;;2.52;100.00;99976.33;5125402;55;1141092;-70
2022/11/23 20:04:12;;;;;;;101.67;43.73;;;;;;;2.52;100.00;99975.48;5098335;56;1139041;-66
2022/11/23 20:09:19;;;;;;;87.93;40.17;;;;;;;2.51;100.00;99975.95;5150883;55;1141091;-69
2022/11/23 20:14:26;;;;;;;93.10;42.40;;;;;;;2.52;100.00;99989.84;5134795;55;1139072;-70
2022/11/23 20:19:31;;;;;;;91.05;44.88;;;;;;;2.51;100.00;99990.30;5166327;55;1139204;-66
2022/11/23 20:24:37;;;;;;;94.27;45.27;;;;;;;2.44;100.00;99994.17;5155731;56;1139116;-67
2022/11/23 20:29:46;;;;;;;85.83;39.20;;;;;;;2.38;100.00;99997.09;5109992;55;1139409;-67
2022/11/23 20:34:52;;;;;;;96.60;45.73;;;;;;;2.37;100.00;99998.02;5136842;56;1139068;-67
2022/11/23 20:39:58;;;;;;;103.27;46.63;;;;;;;2.31;100.00;100001.78;5075153;54;1138844;-70
2022/11/23 20:45:05;;;;;;;96.77;43.20;;;;;;;2.32;100.00;100002.63;5118552;56;1143197;-66
2022/11/23 20:50:11;;;;;;;86.97;41.73;;;;;;;2.37;100.00;100004.08;5123212;56;1140909;-69
2022/11/23 20:55:22;;;;;;;97.77;47.37;;;;;;;2.40;100.00;100003.08;5074912;56;1140879;-69
2022/11/23 21:00:25;;;;;;;107.60;49.13;;;;;;;2.38;100.00;100004.47;5135845;56;1258260;-66
2022/11/23 21:05:31;;;;;;;116.77;50.03;;;;;;;2.37;100.00;100000.16;5085520;56;1147961;-71
2022/11/23 21:16:07;;;;;;;113.77;50.00;;;;;;;2.38;100.00;99997.09;5090996;56;1140902;-69
2022/11/23 21:21:12;;;;;;;105.90;50.05;;;;;;;2.40;100.00;99996.09;5108867;56;1141076;-66
2022/11/23 21:26:18;;;;;;;107.83;49.93;;;;;;;2.39;100.00;100007.92;5117118;56;1140926;-70
2022/11/23 21:31:25;;;;;;;97.80;45.70;;;;;;;2.34;100.00;100004.70;5106858;56;1143092;-67
2022/11/23 21:36:37;;;;;;;88.10;41.73;;;;;;;2.30;100.00;100014.90;5063882;56;1150671;-69
2022/11/23 21:41:44;;;;;;;94.10;41.47;;;;;;;2.32;100.00;100023.50;5064379;56;1140957;-66
2022/11/23 21:46:50;;;;;;;89.80;43.50;;;;;;;2.31;100.00;100022.66;5010797;56;1141128;-67
2022/11/23 21:51:55;;;;;;;103.45;48.65;;;;;;;2.27;100.00;100018.53;4985490;58;1141006;-70
2022/11/23 21:57:01;;;;;;;108.47;47.63;;;;;;;2.27;100.00;100023.76;4985535;58;1143058;-68
2022/11/23 22:02:10;;;;;;;162.50;61.33;;;;;;;2.26;100.00;100019.92;4985573;58;1142941;-70
2022/11/23 22:07:16;;;;;;;96.63;43.80;;;;;;;2.24;100.00;100023.91;5049002;56;1142944;-68
2022/11/23 22:12:22;;;;;;;92.63;42.57;;;;;;;2.26;100.00;100029.89;5068298;56;1140776;-68
2022/11/23 22:17:28;;;;;;;94.13;43.27;;;;;;;2.25;100.00;100024.75;5068450;55;1141000;-69
2022/11/23 22:22:33;;;;;;;98.75;44.80;;;;;;;2.25;100.00;100029.52;5068567;56;1141249;-67
2022/11/23 22:27:39;;;;;;;90.45;42.78;;;;;;;2.25;100.00;100030.81;5068505;57;1140847;-69
2022/11/23 22:32:45;;;;;;;109.70;47.17;;;;;;;2.24;100.00;100034.80;5068473;57;1141042;-67
2022/11/23 22:37:50;;;;;;;99.83;44.60;;;;;;;2.22;100.00;100041.40;5061477;57;1142878;-67
2022/11/23 22:42:58;;;;;;;100.87;44.93;;;;;;;2.18;100.00;100039.86;5126537;56;1140876;-66
2022/11/23 22:48:04;;;;;;;101.17;44.83;;;;;;;2.15;100.00;100050.91;5153140;56;1143004;-65
2022/11/23 22:53:10;;;;;;;105.67;46.30;;;;;;;2.11;100.00;100052.39;5152741;56;1143049;-68
2022/11/23 22:58:16;;;;;;;105.03;44.97;;;;;;;2.10;100.00;100048.55;5153222;56;1142910;-71
2022/11/23 23:03:22;;;;;;;95.67;44.67;;;;;;;2.05;100.00;100059.20;5153223;56;1142907;-68
2022/11/23 23:08:29;;;;;;;98.46;45.04;;;;;;;2.04;100.00;100067.10;5173400;56;1140901;-69